createdAt,value
2022-10-22T00:01:36.943Z,23.87
2022-10-22T00:04:03.837Z,27.40
2022-10-22T00:06:30.348Z,22.23
2022-10-22T00:08:56.802Z,18.13
2022-10-22T00:11:23.446Z,20.07
2022-10-22T00:13:50.166Z,21.50
2022-10-22T00:16:16.612Z,22.43
2022-10-22T00:18:43.252Z,22.53
2022-10-22T00:21:09.789Z,21.23
2022-10-22T00:23:36.230Z,22.47
2022-10-22T00:26:02.674Z,24.50
2022-10-22T00:28:29.073Z,25.97
2022-10-22T00:30:59.604Z,27.13
2022-10-22T00:33:26.850Z,23.77
2022-10-22T00:35:53.354Z,23.47
2022-10-22T00:38:19.758Z,24.57
2022-10-22T00:40:46.445Z,21.37
2022-10-22T00:43:18.110Z,22.63
2022-10-22T00:45:46.069Z,20.53
2022-10-22T00:48:18.783Z,20.93
2022-10-22T00:50:49.370Z,23.37
2022-10-22T00:53:20.997Z,24.53
2022-10-22T00:55:52.441Z,21.07
2022-10-22T00:58:21.220Z,24.90
2022-10-22T01:00:48.616Z,24.50
2022-10-22T01:03:15.211Z,25.03
2022-10-22T01:05:53.832Z,35.63
2022-10-22T01:08:29.191Z,30.27
2022-10-22T01:11:30.439Z,33.23
2022-10-22T01:14:39.074Z,32.80
2022-10-22T01:17:31.807Z,23.60
2022-10-22T01:20:22.528Z,21.47
2022-10-22T01:23:34.148Z,31.30
2022-10-22T01:26:06.871Z,28.83
2022-10-22T01:28:56.478Z,36.90
2022-10-22T01:31:24.247Z,28.53
2022-10-22T01:33:51.750Z,36.97
2022-10-22T01:36:18.617Z,24.93
2022-10-22T01:38:46.172Z,28.47
2022-10-22T01:41:13.828Z,22.93
2022-10-22T01:43:40.217Z,21.80
2022-10-22T01:46:07.254Z,27.13
2022-10-22T01:48:56.252Z,23.87
2022-10-22T01:51:49.956Z,22.93
2022-10-22T01:54:38.588Z,25.63
2022-10-22T01:57:17.702Z,28.50
2022-10-22T02:00:12.687Z,28.50
2022-10-22T02:02:49.865Z,23.20
2022-10-22T02:05:21.306Z,21.43
2022-10-22T02:07:51.228Z,28.40
2022-10-22T02:10:18.530Z,23.27
2022-10-22T02:12:46.313Z,34.77
2022-10-22T02:15:13.680Z,37.80
2022-10-22T02:17:42.648Z,22.37
2022-10-22T02:20:18.608Z,28.60
2022-10-22T02:22:45.455Z,24.40
2022-10-22T02:25:12.293Z,23.50
2022-10-22T02:27:44.450Z,20.57
2022-10-22T02:30:21.891Z,17.57
2022-10-22T02:33:17.989Z,25.87
2022-10-22T02:35:44.626Z,17.43
2022-10-22T02:38:11.657Z,23.30
2022-10-22T02:40:38.385Z,20.30
2022-10-22T02:43:06.001Z,19.57
2022-10-22T02:45:32.645Z,17.43
2022-10-22T02:47:59.112Z,19.17
2022-10-22T02:50:25.543Z,20.47
2022-10-22T02:52:52.019Z,18.63
2022-10-22T02:55:18.475Z,22.27
2022-10-22T02:57:46.104Z,21.47
2022-10-22T03:00:12.908Z,17.60
2022-10-22T03:02:39.453Z,18.53
2022-10-22T03:05:06.438Z,19.83
2022-10-22T03:07:33.053Z,21.20
2022-10-22T03:09:59.843Z,21.63
2022-10-22T03:12:26.239Z,18.50
2022-10-22T03:14:52.708Z,17.80
2022-10-22T03:17:19.173Z,18.00
2022-10-22T03:19:45.581Z,19.33
2022-10-22T03:22:15.968Z,21.33
2022-10-22T03:24:44.769Z,18.90
2022-10-22T03:27:13.237Z,20.37
2022-10-22T03:29:40.513Z,25.83
2022-10-22T03:32:07.395Z,21.20
2022-10-22T03:34:33.822Z,20.47
2022-10-22T03:37:01.444Z,27.40
2022-10-22T03:39:29.865Z,23.17
2022-10-22T03:41:56.394Z,28.17
2022-10-22T03:44:23.609Z,34.03
2022-10-22T03:46:50.937Z,22.10
2022-10-22T03:49:17.317Z,22.50
2022-10-22T03:51:43.717Z,29.13
2022-10-22T03:54:10.120Z,43.63
2022-10-22T03:56:36.560Z,23.30
2022-10-22T03:59:03.575Z,25.83
2022-10-22T04:01:30.934Z,19.73
2022-10-22T04:03:57.952Z,20.00
2022-10-22T04:06:24.667Z,19.43
2022-10-22T04:08:51.476Z,16.87
2022-10-22T04:11:18.106Z,16.37
2022-10-22T04:13:44.588Z,21.00
2022-10-22T04:16:13.908Z,19.67
2022-10-22T04:18:41.091Z,25.10
2022-10-22T04:21:08.705Z,20.47
2022-10-22T04:23:35.153Z,21.67
2022-10-22T04:26:03.719Z,18.10
2022-10-22T04:28:30.350Z,17.13
2022-10-22T04:30:56.850Z,23.87
2022-10-22T04:33:23.442Z,29.23
2022-10-22T04:35:51.229Z,26.10
2022-10-22T04:38:17.700Z,26.77
2022-10-22T04:40:44.179Z,25.40
2022-10-22T04:43:10.688Z,28.40
2022-10-22T04:45:37.137Z,28.73
2022-10-22T04:48:03.582Z,24.87
2022-10-22T04:50:30.844Z,28.83
2022-10-22T04:52:57.274Z,25.00
2022-10-22T04:55:23.739Z,17.50
2022-10-22T04:57:50.335Z,18.63
2022-10-22T05:00:17.154Z,19.57
2022-10-22T05:02:44.765Z,18.10
2022-10-22T05:05:11.954Z,24.37
2022-10-22T05:07:38.783Z,23.53
2022-10-22T05:10:06.296Z,21.80
2022-10-22T05:12:32.824Z,24.30
2022-10-22T05:14:59.312Z,27.63
2022-10-22T05:17:25.750Z,21.50
2022-10-22T05:19:52.198Z,19.57
2022-10-22T05:22:18.699Z,21.43
2022-10-22T05:24:45.173Z,22.47
2022-10-22T05:27:11.637Z,19.73
2022-10-22T05:29:38.186Z,18.70
2022-10-22T05:32:05.114Z,27.57
2022-10-22T05:34:33.262Z,22.20
2022-10-22T05:36:59.670Z,23.57
2022-10-22T05:39:26.255Z,22.90
2022-10-22T05:41:53.944Z,27.40
2022-10-22T05:44:20.517Z,23.83
2022-10-22T05:46:46.987Z,25.53
2022-10-22T05:49:15.347Z,41.80
2022-10-22T05:51:41.909Z,21.03
2022-10-22T05:54:08.616Z,18.67
2022-10-22T05:56:35.434Z,28.77
2022-10-22T06:01:35.269Z,25.43
2022-10-22T06:04:04.173Z,21.83
2022-10-22T06:06:34.580Z,18.93
2022-10-22T06:09:04.544Z,19.30
2022-10-22T06:11:34.219Z,22.70
2022-10-22T06:14:01.780Z,24.17
2022-10-22T06:16:29.889Z,23.27
2022-10-22T06:18:56.380Z,22.97
2022-10-22T06:21:22.939Z,24.73
2022-10-22T06:23:49.446Z,23.47
2022-10-22T06:26:17.798Z,25.70
2022-10-22T06:28:44.232Z,21.00
2022-10-22T06:31:10.678Z,22.37
2022-10-22T06:33:42.231Z,22.87
2022-10-22T06:36:14.109Z,23.17
2022-10-22T06:38:40.944Z,23.53
2022-10-22T06:41:10.003Z,29.37
2022-10-22T06:43:36.684Z,26.40
2022-10-22T06:46:05.822Z,22.30
2022-10-22T06:48:32.993Z,20.43
2022-10-22T06:51:04.099Z,26.07
2022-10-22T06:53:31.969Z,28.47
2022-10-22T06:55:58.377Z,22.13
2022-10-22T06:58:24.805Z,23.50
2022-10-22T07:01:05.397Z,23.97
2022-10-22T07:03:31.990Z,22.97
2022-10-22T07:06:03.080Z,28.30
2022-10-22T07:08:29.785Z,29.53
2022-10-22T07:10:56.768Z,30.03
2022-10-22T07:13:23.356Z,29.50
2022-10-22T07:15:54.779Z,30.33
2022-10-22T07:18:22.315Z,32.73
2022-10-22T07:20:49.654Z,37.23
2022-10-22T07:23:16.557Z,34.33
2022-10-22T07:25:43.012Z,36.13
2022-10-22T07:28:09.994Z,30.50
2022-10-22T07:30:37.779Z,27.90
2022-10-22T07:33:04.561Z,27.83
2022-10-22T07:35:31.287Z,27.90
2022-10-22T07:37:57.697Z,28.10
2022-10-22T07:40:24.126Z,30.17
2022-10-22T07:42:50.616Z,23.70
2022-10-22T07:45:17.091Z,27.60
2022-10-22T07:47:43.883Z,23.43
2022-10-22T07:50:10.466Z,21.77
2022-10-22T07:52:36.894Z,27.63
2022-10-22T07:55:04.190Z,23.33
2022-10-22T07:57:30.667Z,18.93
2022-10-22T07:59:58.111Z,18.00
2022-10-22T08:02:25.297Z,18.03
2022-10-22T08:04:52.052Z,21.17
2022-10-22T08:07:18.902Z,19.83
2022-10-22T08:09:45.452Z,26.43
2022-10-22T08:12:12.204Z,19.90
2022-10-22T08:14:38.622Z,16.30
2022-10-22T08:17:05.201Z,16.57
2022-10-22T08:19:32.489Z,17.40
2022-10-22T08:21:59.445Z,17.67
2022-10-22T08:24:27.019Z,15.93
2022-10-22T08:26:55.730Z,21.20
2022-10-22T08:29:23.397Z,20.47
2022-10-22T08:31:50.437Z,17.90
2022-10-22T08:34:17.288Z,18.03
2022-10-22T08:36:43.895Z,18.07
2022-10-22T08:39:10.340Z,17.87
2022-10-22T08:41:45.597Z,13.33
2022-10-22T08:44:27.387Z,23.03
2022-10-22T08:47:18.753Z,17.17
2022-10-22T08:49:48.040Z,21.90
2022-10-22T08:52:17.508Z,14.37
2022-10-22T08:54:58.710Z,11.50
2022-10-22T08:57:49.962Z,11.10
2022-10-22T09:00:33.885Z,17.30
2022-10-22T09:03:19.290Z,19.07
2022-10-22T09:08:21.924Z,14.13
2022-10-22T09:10:57.402Z,16.43
2022-10-22T09:13:24.118Z,20.17
2022-10-22T09:15:55.330Z,9.43
2022-10-22T09:18:33.650Z,9.53
2022-10-22T09:21:07.466Z,13.60
2022-10-22T09:23:39.196Z,10.50
2022-10-22T09:26:25.548Z,9.97
2022-10-22T09:28:52.150Z,12.23
2022-10-22T09:31:19.400Z,12.57
2022-10-22T09:33:48.906Z,11.57
2022-10-22T09:36:21.893Z,11.60
2022-10-22T09:38:51.271Z,11.07
2022-10-22T09:41:19.508Z,15.07
2022-10-22T09:43:49.497Z,10.97
2022-10-22T09:46:21.255Z,10.13
2022-10-22T09:49:18.164Z,15.27
2022-10-22T09:51:54.899Z,13.07
2022-10-22T09:54:31.586Z,10.53
2022-10-22T09:57:04.274Z,14.47
2022-10-22T09:59:32.825Z,11.17
2022-10-22T10:02:13.532Z,11.97
2022-10-22T10:04:52.575Z,12.30
2022-10-22T10:07:24.882Z,11.90
2022-10-22T10:09:52.095Z,14.03
2022-10-22T10:12:39.954Z,9.53
2022-10-22T10:15:28.663Z,11.67
2022-10-22T10:18:12.548Z,12.50
2022-10-22T10:20:45.703Z,17.80
2022-10-22T10:23:32.320Z,10.20
2022-10-22T10:26:14.420Z,13.90
2022-10-22T10:29:00.841Z,9.00
2022-10-22T10:31:38.931Z,15.30
2022-10-22T10:34:22.310Z,11.30
2022-10-22T10:37:04.213Z,12.43
2022-10-22T10:39:58.750Z,10.93
2022-10-22T10:42:44.659Z,10.13
2022-10-22T10:45:22.540Z,12.57
2022-10-22T10:48:04.262Z,17.00
2022-10-22T10:50:32.897Z,11.33
2022-10-22T10:53:18.120Z,13.13
2022-10-22T10:56:06.336Z,12.20
2022-10-22T10:58:51.377Z,12.23
2022-10-22T11:01:27.118Z,10.90
2022-10-22T11:04:15.760Z,11.77
2022-10-22T11:06:43.746Z,13.63
2022-10-22T11:09:29.832Z,14.73
2022-10-22T11:12:03.992Z,12.63
2022-10-22T11:14:36.131Z,9.60
2022-10-22T11:17:07.199Z,8.60
2022-10-22T11:19:50.908Z,16.40
2022-10-22T11:22:34.241Z,8.07
2022-10-22T11:25:12.760Z,8.87
2022-10-22T11:27:42.091Z,16.40
2022-10-22T11:30:15.456Z,14.83
2022-10-22T11:32:43.960Z,15.63
2022-10-22T11:35:17.076Z,14.83
2022-10-22T11:37:44.932Z,8.00
2022-10-22T11:40:20.197Z,8.67
2022-10-22T11:42:54.192Z,10.10
2022-10-22T11:45:23.802Z,19.50
2022-10-22T11:48:08.366Z,15.47
2022-10-22T11:50:41.008Z,11.77
2022-10-22T11:53:13.529Z,12.17
2022-10-22T11:55:45.428Z,10.37
2022-10-22T11:58:31.960Z,9.63
2022-10-22T12:01:03.768Z,18.80
2022-10-22T12:03:33.107Z,13.20
2022-10-22T12:06:11.681Z,14.30
2022-10-22T12:08:44.894Z,14.00
2022-10-22T12:11:13.785Z,9.63
2022-10-22T12:14:01.359Z,17.60
2022-10-22T12:16:54.735Z,8.97
2022-10-22T12:19:32.458Z,13.77
2022-10-22T12:22:08.204Z,14.63
2022-10-22T12:24:37.558Z,12.33
2022-10-22T12:27:04.198Z,10.23
2022-10-22T12:29:32.152Z,9.23
2022-10-22T12:32:03.268Z,6.70
2022-10-22T12:34:29.689Z,9.13
2022-10-22T12:36:57.116Z,13.73
2022-10-22T12:39:27.111Z,11.83
2022-10-22T12:41:54.915Z,10.13
2022-10-22T12:44:21.408Z,8.50
2022-10-22T12:46:52.931Z,10.27
2022-10-22T12:49:25.649Z,8.97
2022-10-22T12:51:52.044Z,6.37
2022-10-22T12:54:29.064Z,9.57
2022-10-22T12:56:56.552Z,8.73
2022-10-22T12:59:45.903Z,8.40
2022-10-22T13:02:21.509Z,8.63
2022-10-22T13:05:14.943Z,7.13
2022-10-22T13:07:43.549Z,9.43
2022-10-22T13:10:32.337Z,9.27
2022-10-22T13:12:59.361Z,9.23
2022-10-22T13:15:31.867Z,10.57
2022-10-22T13:18:03.814Z,7.50
2022-10-22T13:20:30.574Z,8.63
2022-10-22T13:23:02.787Z,9.33
2022-10-22T13:25:32.100Z,9.13
2022-10-22T13:28:20.112Z,9.00
2022-10-22T13:31:14.308Z,9.73
2022-10-22T13:33:46.119Z,12.07
2022-10-22T13:36:16.428Z,11.77
2022-10-22T13:38:43.529Z,9.93
2022-10-22T13:41:33.668Z,10.47
2022-10-22T13:44:00.123Z,13.00
2022-10-22T13:46:27.115Z,6.80
2022-10-22T13:48:57.246Z,17.17
2022-10-22T13:51:31.274Z,13.47
2022-10-22T13:53:57.839Z,7.67
2022-10-22T13:56:24.376Z,10.17
2022-10-22T13:58:51.169Z,5.97
2022-10-22T14:01:26.019Z,9.47
2022-10-22T14:03:54.665Z,14.10
2022-10-22T14:06:22.498Z,9.50
2022-10-22T14:08:54.402Z,8.20
2022-10-22T14:11:20.918Z,11.40
2022-10-22T14:13:47.382Z,7.73
2022-10-22T14:16:17.936Z,8.80
2022-10-22T14:18:44.391Z,5.90
2022-10-22T14:21:12.862Z,9.30
2022-10-22T14:23:39.929Z,7.07
2022-10-22T14:26:07.844Z,9.77
2022-10-22T14:28:41.341Z,10.10
2022-10-22T14:31:12.911Z,7.30
2022-10-22T14:33:39.400Z,9.03
2022-10-22T14:36:06.430Z,7.67
2022-10-22T14:38:32.872Z,11.23
2022-10-22T14:40:59.853Z,14.07
2022-10-22T14:43:28.640Z,9.00
2022-10-22T14:45:55.383Z,9.17
2022-10-22T14:48:21.782Z,6.40
2022-10-22T14:50:48.585Z,19.07
2022-10-22T14:53:16.771Z,8.33
2022-10-22T14:55:44.209Z,8.00
2022-10-22T14:58:12.302Z,10.53
2022-10-22T15:00:41.848Z,9.10
2022-10-22T15:03:08.644Z,9.40
2022-10-22T15:05:36.686Z,9.23
2022-10-22T15:08:03.262Z,6.83
2022-10-22T15:10:29.691Z,14.60
2022-10-22T15:12:56.190Z,12.00
2022-10-22T15:15:23.280Z,10.23
2022-10-22T15:17:51.074Z,13.17
2022-10-22T15:20:17.481Z,8.33
2022-10-22T15:22:45.272Z,9.00
2022-10-22T15:25:12.885Z,10.07
2022-10-22T15:27:39.507Z,13.53
2022-10-22T15:30:07.683Z,11.20
2022-10-22T15:32:34.219Z,14.30
2022-10-22T15:35:01.556Z,8.33
2022-10-22T15:37:28.208Z,10.20
2022-10-22T15:39:54.672Z,9.37
2022-10-22T15:42:21.144Z,14.47
2022-10-22T15:44:47.651Z,9.37
2022-10-22T15:47:14.129Z,10.63
2022-10-22T15:49:41.856Z,7.33
2022-10-22T15:52:09.200Z,6.50
2022-10-22T15:54:35.798Z,12.17
2022-10-22T15:57:03.525Z,8.87
2022-10-22T15:59:30.298Z,9.87
2022-10-22T16:01:56.758Z,13.30
2022-10-22T16:04:23.171Z,8.93
2022-10-22T16:06:52.760Z,10.13
2022-10-22T16:09:24.633Z,10.83
2022-10-22T16:14:24.030Z,15.27
2022-10-22T16:16:52.271Z,12.20
2022-10-22T16:19:20.489Z,12.80
2022-10-22T16:21:50.746Z,14.07
2022-10-22T16:24:17.665Z,12.70
2022-10-22T16:26:44.319Z,9.83
2022-10-22T16:29:12.504Z,14.97
2022-10-22T16:31:40.195Z,11.50
2022-10-22T16:34:07.393Z,12.30
2022-10-22T16:36:34.055Z,8.97
2022-10-22T16:39:00.450Z,12.30
2022-10-22T16:41:34.785Z,12.57
2022-10-22T16:44:03.294Z,15.63
2022-10-22T16:46:30.758Z,14.10
2022-10-22T16:48:57.250Z,12.17
2022-10-22T16:51:25.421Z,13.93
2022-10-22T16:53:52.624Z,17.27
2022-10-22T16:56:19.805Z,10.33
2022-10-22T16:58:51.929Z,17.10
2022-10-22T17:01:20.269Z,12.40
2022-10-22T17:03:47.074Z,18.20
2022-10-22T17:06:13.751Z,18.33
2022-10-22T17:08:41.222Z,8.50
2022-10-22T17:11:09.296Z,11.73
2022-10-22T17:13:36.291Z,10.57
2022-10-22T17:16:08.866Z,11.97
2022-10-22T17:18:37.270Z,13.37
2022-10-22T17:21:05.173Z,11.13
2022-10-22T17:23:31.762Z,14.80
2022-10-22T17:26:03.030Z,14.30
2022-10-22T17:28:30.217Z,7.77
2022-10-22T17:31:06.671Z,18.53
2022-10-22T17:33:34.268Z,16.17
2022-10-22T17:36:01.174Z,22.37
2022-10-22T17:38:27.710Z,13.23
2022-10-22T17:40:54.523Z,19.13
2022-10-22T17:43:21.028Z,14.00
2022-10-22T17:45:47.541Z,19.23
2022-10-22T17:48:13.970Z,13.93
2022-10-22T17:50:46.983Z,18.03
2022-10-22T17:53:17.885Z,16.80
2022-10-22T17:55:44.300Z,13.53
2022-10-22T17:58:10.913Z,16.47
2022-10-22T18:00:37.431Z,16.90
2022-10-22T18:03:03.953Z,15.53
2022-10-22T18:05:30.372Z,14.50
2022-10-22T18:07:57.452Z,10.47
2022-10-22T18:10:24.146Z,21.83
2022-10-22T18:12:50.790Z,16.07
2022-10-22T18:15:17.580Z,14.77
2022-10-22T18:17:44.455Z,9.10
2022-10-22T18:20:11.776Z,12.43
2022-10-22T18:22:41.280Z,13.60
2022-10-22T18:25:08.736Z,11.37
2022-10-22T18:27:35.150Z,15.17
2022-10-22T18:30:01.553Z,10.40
2022-10-22T18:32:27.988Z,12.33
2022-10-22T18:34:54.369Z,16.40
2022-10-22T18:37:20.819Z,14.20
2022-10-22T18:39:47.282Z,15.40
2022-10-22T18:44:40.055Z,21.23
2022-10-22T18:47:08.580Z,18.90
2022-10-22T18:49:35.211Z,17.73
2022-10-22T18:52:01.644Z,19.10
2022-10-22T18:54:28.076Z,17.17
2022-10-22T18:56:59.381Z,20.57
2022-10-22T18:59:28.425Z,21.20
2022-10-22T19:01:57.552Z,13.70
2022-10-22T19:04:23.931Z,19.30
2022-10-22T19:06:50.408Z,18.80
2022-10-22T19:09:17.481Z,16.33
2022-10-22T19:11:44.747Z,17.97
2022-10-22T19:14:13.097Z,19.13
2022-10-22T19:16:39.573Z,23.07
2022-10-22T19:19:06.999Z,16.77
2022-10-22T19:21:33.471Z,18.47
2022-10-22T19:24:00.813Z,14.43
2022-10-22T19:26:28.680Z,12.43
2022-10-22T19:28:55.937Z,14.50
2022-10-22T19:31:24.402Z,20.43
2022-10-22T19:33:51.895Z,15.17
2022-10-22T19:36:20.048Z,23.90
2022-10-22T19:38:48.227Z,16.57
2022-10-22T19:41:17.817Z,15.63
2022-10-22T19:43:45.422Z,18.07
2022-10-22T19:46:12.299Z,11.53
2022-10-22T19:48:38.759Z,15.97
2022-10-22T19:51:08.704Z,14.33
2022-10-22T19:53:37.253Z,16.37
2022-10-22T19:56:06.532Z,17.70
2022-10-22T19:58:33.712Z,15.77
2022-10-22T20:01:08.833Z,17.03
2022-10-22T20:03:36.435Z,15.00
2022-10-22T20:06:04.108Z,23.00
2022-10-22T20:08:32.014Z,21.90
2022-10-22T20:10:58.571Z,26.23
2022-10-22T20:13:25.032Z,21.00
2022-10-22T20:15:53.514Z,20.17
2022-10-22T20:18:22.293Z,21.53
2022-10-22T20:20:49.208Z,16.33
2022-10-22T20:23:15.740Z,20.60
2022-10-22T20:25:43.709Z,17.87
2022-10-22T20:28:10.360Z,23.70
2022-10-22T20:30:41.569Z,15.37
2022-10-22T20:33:08.230Z,13.50
2022-10-22T20:35:35.636Z,19.20
2022-10-22T20:38:02.548Z,21.03
2022-10-22T20:40:30.696Z,17.87
2022-10-22T20:42:57.112Z,22.17
2022-10-22T20:45:23.917Z,18.23
2022-10-22T20:47:51.781Z,19.10
2022-10-22T20:50:29.626Z,17.43
2022-10-22T20:52:56.081Z,17.00
2022-10-22T20:55:22.661Z,23.30
2022-10-22T20:57:49.330Z,18.80
2022-10-22T21:00:15.895Z,23.13
2022-10-22T21:02:42.419Z,27.73
2022-10-22T21:05:09.146Z,21.77
2022-10-22T21:07:35.619Z,23.60
2022-10-22T21:10:02.687Z,22.63
2022-10-22T21:12:29.121Z,16.23
2022-10-22T21:14:55.560Z,23.33
2022-10-22T21:17:21.978Z,21.53
2022-10-22T21:19:48.490Z,20.43
2022-10-22T21:22:14.926Z,19.83
2022-10-22T21:24:42.158Z,18.47
2022-10-22T21:27:08.640Z,22.13
2022-10-22T21:29:36.616Z,13.63
2022-10-22T21:32:03.153Z,15.57
2022-10-22T21:34:29.571Z,15.00
2022-10-22T21:36:56.043Z,16.83
2022-10-22T21:39:22.446Z,18.33
2022-10-22T21:41:48.865Z,17.67
2022-10-22T21:44:15.260Z,17.23
2022-10-22T21:46:41.670Z,17.67
2022-10-22T21:49:08.221Z,20.77
2022-10-22T21:51:37.973Z,13.93
2022-10-22T21:54:04.897Z,16.50
2022-10-22T21:56:33.689Z,21.63
2022-10-22T21:59:00.734Z,17.90
2022-10-22T22:01:27.253Z,16.40
2022-10-22T22:03:53.842Z,18.47
2022-10-22T22:06:23.345Z,19.07
2022-10-22T22:08:51.608Z,16.20
2022-10-22T22:11:23.061Z,13.27
2022-10-22T22:13:50.087Z,15.10
2022-10-22T22:16:22.450Z,25.70
2022-10-22T22:18:52.129Z,17.67
2022-10-22T22:21:20.428Z,18.97
2022-10-22T22:23:48.198Z,22.70
2022-10-22T22:26:18.025Z,22.30
2022-10-22T22:28:44.424Z,21.20
2022-10-22T22:31:18.764Z,24.13
2022-10-22T22:33:45.749Z,21.33
2022-10-22T22:36:12.225Z,23.93
2022-10-22T22:38:38.823Z,23.63
2022-10-22T22:41:06.281Z,21.23
2022-10-22T22:43:33.006Z,26.23
2022-10-22T22:46:11.863Z,20.10
2022-10-22T22:48:38.443Z,20.53
2022-10-22T22:51:06.248Z,24.30
2022-10-22T22:53:34.354Z,21.67
2022-10-22T22:56:22.174Z,32.90
2022-10-22T22:58:48.675Z,23.03
2022-10-22T23:01:29.490Z,22.10
2022-10-22T23:04:14.260Z,22.03
2022-10-22T23:06:40.768Z,23.03
2022-10-22T23:09:10.314Z,20.57
2022-10-22T23:11:37.221Z,18.90
2022-10-22T23:14:05.701Z,23.40
2022-10-22T23:16:34.873Z,18.27
2022-10-22T23:19:04.337Z,21.10
2022-10-22T23:21:33.543Z,19.80
2022-10-22T23:24:02.296Z,20.47
2022-10-22T23:26:31.463Z,19.33
2022-10-22T23:29:02.610Z,16.33
2022-10-22T23:31:29.274Z,18.67
2022-10-22T23:33:55.804Z,22.57
2022-10-22T23:36:22.215Z,18.17
2022-10-22T23:38:50.179Z,20.97
2022-10-22T23:41:17.293Z,21.93
2022-10-22T23:43:44.041Z,18.03
2022-10-22T23:46:11.912Z,15.57
2022-10-22T23:48:41.674Z,18.27
2022-10-22T23:51:11.581Z,14.37
2022-10-22T23:53:38.533Z,16.17
2022-10-22T23:56:07.299Z,22.40
2022-10-22T23:58:34.626Z,18.17
